sensor_id;sensor_type;location;lat;lon;timestamp;temperature;humidity
352;DHT22;164;50.784;6.496;2022-07-23T00:01:20;19.20;1.00
352;DHT22;164;50.784;6.496;2022-07-23T00:03:47;19.20;1.00
352;DHT22;164;50.784;6.496;2022-07-23T00:06:15;19.30;1.00
352;DHT22;164;50.784;6.496;2022-07-23T00:08:42;19.30;1.00
352;DHT22;164;50.784;6.496;2022-07-23T00:11:09;19.30;1.00
352;DHT22;164;50.784;6.496;2022-07-23T00:13:36;19.30;1.00
352;DHT22;164;50.784;6.496;2022-07-23T00:16:03;19.40;1.00
352;DHT22;164;50.784;6.496;2022-07-23T00:18:32;19.40;1.00
352;DHT22;164;50.784;6.496;2022-07-23T00:20:59;19.40;1.00
352;DHT22;164;50.784;6.496;2022-07-23T00:23:26;19.50;1.00
352;DHT22;164;50.784;6.496;2022-07-23T00:25:54;19.50;1.00
352;DHT22;164;50.784;6.496;2022-07-23T00:28:22;19.50;1.00
352;DHT22;164;50.784;6.496;2022-07-23T00:30:49;19.50;1.00
352;DHT22;164;50.784;6.496;2022-07-23T00:33:15;19.50;1.00
352;DHT22;164;50.784;6.496;2022-07-23T00:35:44;19.40;1.00
352;DHT22;164;50.784;6.496;2022-07-23T00:38:11;19.40;1.00
352;DHT22;164;50.784;6.496;2022-07-23T00:40:38;19.30;1.00
352;DHT22;164;50.784;6.496;2022-07-23T00:43:06;19.30;1.00
352;DHT22;164;50.784;6.496;2022-07-23T00:45:33;19.20;1.00
352;DHT22;164;50.784;6.496;2022-07-23T00:48:00;19.20;1.00
352;DHT22;164;50.784;6.496;2022-07-23T00:50:28;19.10;1.00
352;DHT22;164;50.784;6.496;2022-07-23T00:52:57;19.10;1.00
352;DHT22;164;50.784;6.496;2022-07-23T00:55:24;19.00;1.00
352;DHT22;164;50.784;6.496;2022-07-23T00:57:53;19.00;1.00
352;DHT22;164;50.784;6.496;2022-07-23T01:00:20;19.10;1.00
352;DHT22;164;50.784;6.496;2022-07-23T01:02:48;19.10;1.00
352;DHT22;164;50.784;6.496;2022-07-23T01:05:16;19.00;1.00
352;DHT22;164;50.784;6.496;2022-07-23T01:07:47;19.00;1.00
352;DHT22;164;50.784;6.496;2022-07-23T01:10:16;19.00;1.00
352;DHT22;164;50.784;6.496;2022-07-23T01:12:59;19.00;1.00
352;DHT22;164;50.784;6.496;2022-07-23T01:15:26;19.00;1.00
352;DHT22;164;50.784;6.496;2022-07-23T01:17:53;19.00;1.00
352;DHT22;164;50.784;6.496;2022-07-23T01:20:20;18.90;1.00
352;DHT22;164;50.784;6.496;2022-07-23T01:22:49;18.90;1.00
352;DHT22;164;50.784;6.496;2022-07-23T01:25:16;18.90;1.00
352;DHT22;164;50.784;6.496;2022-07-23T01:27:44;18.90;1.00
352;DHT22;164;50.784;6.496;2022-07-23T01:30:11;18.90;1.00
352;DHT22;164;50.784;6.496;2022-07-23T01:32:39;18.90;1.00
352;DHT22;164;50.784;6.496;2022-07-23T01:35:07;18.80;1.00
352;DHT22;164;50.784;6.496;2022-07-23T01:37:34;18.80;1.00
352;DHT22;164;50.784;6.496;2022-07-23T01:40:05;18.80;1.00
352;DHT22;164;50.784;6.496;2022-07-23T01:42:32;18.80;1.00
352;DHT22;164;50.784;6.496;2022-07-23T01:44:59;18.70;1.00
352;DHT22;164;50.784;6.496;2022-07-23T01:47:26;18.60;1.00
352;DHT22;164;50.784;6.496;2022-07-23T01:49:53;18.60;1.00
352;DHT22;164;50.784;6.496;2022-07-23T01:52:20;18.50;1.00
352;DHT22;164;50.784;6.496;2022-07-23T01:54:47;18.50;1.00
352;DHT22;164;50.784;6.496;2022-07-23T01:57:15;18.50;1.00
352;DHT22;164;50.784;6.496;2022-07-23T01:59:42;18.40;1.00
352;DHT22;164;50.784;6.496;2022-07-23T02:02:09;18.40;1.00
352;DHT22;164;50.784;6.496;2022-07-23T02:04:36;18.30;1.00
352;DHT22;164;50.784;6.496;2022-07-23T02:07:04;18.30;1.00
352;DHT22;164;50.784;6.496;2022-07-23T02:09:32;18.30;1.00
352;DHT22;164;50.784;6.496;2022-07-23T02:11:59;18.30;1.00
352;DHT22;164;50.784;6.496;2022-07-23T02:14:27;18.20;1.00
352;DHT22;164;50.784;6.496;2022-07-23T02:16:54;18.20;1.00
352;DHT22;164;50.784;6.496;2022-07-23T02:19:21;18.10;1.00
352;DHT22;164;50.784;6.496;2022-07-23T02:21:48;18.10;1.00
352;DHT22;164;50.784;6.496;2022-07-23T02:24:16;18.00;1.00
352;DHT22;164;50.784;6.496;2022-07-23T02:26:42;17.90;1.00
352;DHT22;164;50.784;6.496;2022-07-23T02:29:09;17.90;1.00
352;DHT22;164;50.784;6.496;2022-07-23T02:31:38;17.80;1.00
352;DHT22;164;50.784;6.496;2022-07-23T02:34:05;17.70;1.00
352;DHT22;164;50.784;6.496;2022-07-23T02:36:32;17.70;1.00
352;DHT22;164;50.784;6.496;2022-07-23T02:38:59;17.70;1.00
352;DHT22;164;50.784;6.496;2022-07-23T02:41:26;17.60;1.00
352;DHT22;164;50.784;6.496;2022-07-23T02:43:53;17.60;1.00
352;DHT22;164;50.784;6.496;2022-07-23T02:46:20;17.50;1.00
352;DHT22;164;50.784;6.496;2022-07-23T02:48:48;17.50;1.00
352;DHT22;164;50.784;6.496;2022-07-23T02:51:15;17.50;1.00
352;DHT22;164;50.784;6.496;2022-07-23T02:53:42;17.40;1.00
352;DHT22;164;50.784;6.496;2022-07-23T02:56:09;17.40;1.00
352;DHT22;164;50.784;6.496;2022-07-23T02:58:36;17.40;1.00
352;DHT22;164;50.784;6.496;2022-07-23T03:01:04;17.40;1.00
352;DHT22;164;50.784;6.496;2022-07-23T03:03:31;17.30;1.00
352;DHT22;164;50.784;6.496;2022-07-23T03:05:59;17.30;1.00
352;DHT22;164;50.784;6.496;2022-07-23T03:08:26;17.30;1.00
352;DHT22;164;50.784;6.496;2022-07-23T03:10:53;17.20;1.00
352;DHT22;164;50.784;6.496;2022-07-23T03:13:20;17.20;1.00
352;DHT22;164;50.784;6.496;2022-07-23T03:15:47;17.20;1.00
352;DHT22;164;50.784;6.496;2022-07-23T03:18:14;17.10;1.00
352;DHT22;164;50.784;6.496;2022-07-23T03:20:41;17.10;1.00
352;DHT22;164;50.784;6.496;2022-07-23T03:23:09;17.10;1.00
352;DHT22;164;50.784;6.496;2022-07-23T03:25:36;17.10;1.00
352;DHT22;164;50.784;6.496;2022-07-23T03:28:03;17.00;1.00
352;DHT22;164;50.784;6.496;2022-07-23T03:30:30;17.00;1.00
352;DHT22;164;50.784;6.496;2022-07-23T03:32:57;17.00;1.00
352;DHT22;164;50.784;6.496;2022-07-23T03:35:24;17.00;1.00
352;DHT22;164;50.784;6.496;2022-07-23T03:37:51;17.00;1.00
352;DHT22;164;50.784;6.496;2022-07-23T03:40:20;16.90;1.00
352;DHT22;164;50.784;6.496;2022-07-23T03:42:47;16.90;1.00
352;DHT22;164;50.784;6.496;2022-07-23T03:45:13;16.90;1.00
352;DHT22;164;50.784;6.496;2022-07-23T03:47:40;16.80;1.00
352;DHT22;164;50.784;6.496;2022-07-23T03:56:07;16.70;1.00
352;DHT22;164;50.784;6.496;2022-07-23T03:58:34;16.70;1.00
352;DHT22;164;50.784;6.496;2022-07-23T04:01:01;16.60;1.00
352;DHT22;164;50.784;6.496;2022-07-23T04:03:28;16.60;1.00
352;DHT22;164;50.784;6.496;2022-07-23T04:05:55;16.60;1.00
352;DHT22;164;50.784;6.496;2022-07-23T04:08:22;16.60;1.00
352;DHT22;164;50.784;6.496;2022-07-23T04:10:49;16.60;1.00
352;DHT22;164;50.784;6.496;2022-07-23T04:13:17;16.60;1.00
352;DHT22;164;50.784;6.496;2022-07-23T04:15:44;16.60;1.00
352;DHT22;164;50.784;6.496;2022-07-23T04:18:11;16.60;1.00
352;DHT22;164;50.784;6.496;2022-07-23T04:20:39;16.60;1.00
352;DHT22;164;50.784;6.496;2022-07-23T04:23:06;16.60;1.00
352;DHT22;164;50.784;6.496;2022-07-23T04:25:33;16.60;1.00
352;DHT22;164;50.784;6.496;2022-07-23T04:28:00;16.60;1.00
352;DHT22;164;50.784;6.496;2022-07-23T04:30:28;16.60;1.00
352;DHT22;164;50.784;6.496;2022-07-23T04:32:55;16.60;1.00
352;DHT22;164;50.784;6.496;2022-07-23T04:35:22;16.60;1.00
352;DHT22;164;50.784;6.496;2022-07-23T04:37:49;16.60;1.00
352;DHT22;164;50.784;6.496;2022-07-23T04:40:16;16.60;1.00
352;DHT22;164;50.784;6.496;2022-07-23T04:42:43;16.60;1.00
352;DHT22;164;50.784;6.496;2022-07-23T04:45:10;16.60;1.00
352;DHT22;164;50.784;6.496;2022-07-23T04:47:38;16.60;1.00
352;DHT22;164;50.784;6.496;2022-07-23T04:50:06;16.60;1.00
352;DHT22;164;50.784;6.496;2022-07-23T04:52:33;16.60;1.00
352;DHT22;164;50.784;6.496;2022-07-23T04:55:00;16.70;1.00
352;DHT22;164;50.784;6.496;2022-07-23T04:57:27;16.70;1.00
352;DHT22;164;50.784;6.496;2022-07-23T04:59:54;16.80;1.00
352;DHT22;164;50.784;6.496;2022-07-23T05:02:21;16.80;1.00
352;DHT22;164;50.784;6.496;2022-07-23T05:04:49;16.80;1.00
352;DHT22;164;50.784;6.496;2022-07-23T05:07:16;16.90;1.00
352;DHT22;164;50.784;6.496;2022-07-23T05:09:43;17.00;1.00
352;DHT22;164;50.784;6.496;2022-07-23T05:12:09;17.10;1.00
352;DHT22;164;50.784;6.496;2022-07-23T05:14:36;17.20;1.00
352;DHT22;164;50.784;6.496;2022-07-23T05:17:03;17.30;1.00
352;DHT22;164;50.784;6.496;2022-07-23T05:19:30;17.40;1.00
352;DHT22;164;50.784;6.496;2022-07-23T05:21:59;17.50;1.00
352;DHT22;164;50.784;6.496;2022-07-23T05:24:25;17.60;1.00
352;DHT22;164;50.784;6.496;2022-07-23T05:26:53;17.60;1.00
352;DHT22;164;50.784;6.496;2022-07-23T05:29:20;17.70;1.00
352;DHT22;164;50.784;6.496;2022-07-23T05:31:47;17.80;1.00
352;DHT22;164;50.784;6.496;2022-07-23T05:34:13;17.90;1.00
352;DHT22;164;50.784;6.496;2022-07-23T05:36:40;17.90;1.00
352;DHT22;164;50.784;6.496;2022-07-23T05:39:09;17.90;1.00
352;DHT22;164;50.784;6.496;2022-07-23T05:41:36;18.00;1.00
352;DHT22;164;50.784;6.496;2022-07-23T05:44:03;18.10;1.00
352;DHT22;164;50.784;6.496;2022-07-23T05:46:29;18.10;1.00
352;DHT22;164;50.784;6.496;2022-07-23T05:48:56;18.20;1.00
352;DHT22;164;50.784;6.496;2022-07-23T05:51:24;18.20;1.00
352;DHT22;164;50.784;6.496;2022-07-23T05:53:51;18.20;1.00
352;DHT22;164;50.784;6.496;2022-07-23T05:56:20;18.20;1.00
352;DHT22;164;50.784;6.496;2022-07-23T05:58:47;18.20;1.00
352;DHT22;164;50.784;6.496;2022-07-23T06:01:13;18.30;1.00
352;DHT22;164;50.784;6.496;2022-07-23T06:03:40;18.30;1.00
352;DHT22;164;50.784;6.496;2022-07-23T06:06:07;18.30;1.00
352;DHT22;164;50.784;6.496;2022-07-23T06:08:34;18.40;1.00
352;DHT22;164;50.784;6.496;2022-07-23T06:11:01;18.40;1.00
352;DHT22;164;50.784;6.496;2022-07-23T06:13:29;18.50;1.00
352;DHT22;164;50.784;6.496;2022-07-23T06:15:56;18.60;1.00
352;DHT22;164;50.784;6.496;2022-07-23T06:18:23;18.60;1.00
352;DHT22;164;50.784;6.496;2022-07-23T06:20:50;18.60;1.00
352;DHT22;164;50.784;6.496;2022-07-23T06:23:17;18.60;1.00
352;DHT22;164;50.784;6.496;2022-07-23T06:25:44;18.60;1.00
352;DHT22;164;50.784;6.496;2022-07-23T06:28:11;18.60;1.00
352;DHT22;164;50.784;6.496;2022-07-23T06:30:39;18.60;1.00
352;DHT22;164;50.784;6.496;2022-07-23T06:33:06;18.70;1.00
352;DHT22;164;50.784;6.496;2022-07-23T06:35:33;18.60;1.00
352;DHT22;164;50.784;6.496;2022-07-23T06:38:00;18.60;1.00
352;DHT22;164;50.784;6.496;2022-07-23T06:40:27;18.60;1.00
352;DHT22;164;50.784;6.496;2022-07-23T06:42:54;18.60;1.00
352;DHT22;164;50.784;6.496;2022-07-23T06:45:21;18.60;1.00
352;DHT22;164;50.784;6.496;2022-07-23T06:47:49;18.60;1.00
352;DHT22;164;50.784;6.496;2022-07-23T06:50:16;18.70;1.00
352;DHT22;164;50.784;6.496;2022-07-23T06:52:43;18.70;1.00
352;DHT22;164;50.784;6.496;2022-07-23T06:55:10;18.60;1.00
352;DHT22;164;50.784;6.496;2022-07-23T06:57:37;18.60;1.00
352;DHT22;164;50.784;6.496;2022-07-23T07:00:05;18.60;1.00
352;DHT22;164;50.784;6.496;2022-07-23T07:02:32;18.70;1.00
352;DHT22;164;50.784;6.496;2022-07-23T07:05:00;18.80;1.00
352;DHT22;164;50.784;6.496;2022-07-23T07:07:27;18.80;1.00
352;DHT22;164;50.784;6.496;2022-07-23T07:09:54;18.90;1.00
352;DHT22;164;50.784;6.496;2022-07-23T07:12:21;19.00;1.00
352;DHT22;164;50.784;6.496;2022-07-23T07:14:48;19.00;1.00
352;DHT22;164;50.784;6.496;2022-07-23T07:17:14;19.10;1.00
352;DHT22;164;50.784;6.496;2022-07-23T07:19:42;19.10;1.00
352;DHT22;164;50.784;6.496;2022-07-23T07:22:10;19.20;1.00
352;DHT22;164;50.784;6.496;2022-07-23T07:24:37;19.20;1.00
352;DHT22;164;50.784;6.496;2022-07-23T07:27:04;19.20;1.00
352;DHT22;164;50.784;6.496;2022-07-23T07:29:31;19.20;1.00
352;DHT22;164;50.784;6.496;2022-07-23T07:31:58;19.30;1.00
352;DHT22;164;50.784;6.496;2022-07-23T07:34:25;19.40;1.00
352;DHT22;164;50.784;6.496;2022-07-23T07:36:52;19.40;1.00
352;DHT22;164;50.784;6.496;2022-07-23T07:39:20;19.50;1.00
352;DHT22;164;50.784;6.496;2022-07-23T07:41:47;19.40;1.00
352;DHT22;164;50.784;6.496;2022-07-23T07:44:14;19.50;1.00
352;DHT22;164;50.784;6.496;2022-07-23T07:46:41;19.50;1.00
352;DHT22;164;50.784;6.496;2022-07-23T07:49:07;19.50;1.00
352;DHT22;164;50.784;6.496;2022-07-23T07:51:34;19.60;1.00
352;DHT22;164;50.784;6.496;2022-07-23T07:54:01;19.60;1.00
352;DHT22;164;50.784;6.496;2022-07-23T07:56:29;19.80;1.00
352;DHT22;164;50.784;6.496;2022-07-23T07:58:56;19.80;1.00
352;DHT22;164;50.784;6.496;2022-07-23T08:01:23;19.80;1.00
352;DHT22;164;50.784;6.496;2022-07-23T08:03:50;19.90;1.00
352;DHT22;164;50.784;6.496;2022-07-23T08:06:17;20.00;1.00
352;DHT22;164;50.784;6.496;2022-07-23T08:08:44;20.00;1.00
352;DHT22;164;50.784;6.496;2022-07-23T08:11:11;20.00;1.00
352;DHT22;164;50.784;6.496;2022-07-23T08:13:39;20.00;1.00
352;DHT22;164;50.784;6.496;2022-07-23T08:16:07;20.10;1.00
352;DHT22;164;50.784;6.496;2022-07-23T08:18:34;20.10;1.00
352;DHT22;164;50.784;6.496;2022-07-23T08:21:01;20.20;1.00
352;DHT22;164;50.784;6.496;2022-07-23T08:23:30;20.20;1.00
352;DHT22;164;50.784;6.496;2022-07-23T08:25:57;20.20;1.00
352;DHT22;164;50.784;6.496;2022-07-23T08:28:25;20.20;1.00
352;DHT22;164;50.784;6.496;2022-07-23T08:30:53;20.20;1.00
352;DHT22;164;50.784;6.496;2022-07-23T08:33:20;20.30;1.00
352;DHT22;164;50.784;6.496;2022-07-23T08:35:48;20.40;1.00
352;DHT22;164;50.784;6.496;2022-07-23T08:38:17;20.50;1.00
352;DHT22;164;50.784;6.496;2022-07-23T08:40:46;20.50;1.00
352;DHT22;164;50.784;6.496;2022-07-23T08:43:15;20.50;1.00
352;DHT22;164;50.784;6.496;2022-07-23T08:45:44;20.60;1.00
352;DHT22;164;50.784;6.496;2022-07-23T08:48:13;20.60;1.00
352;DHT22;164;50.784;6.496;2022-07-23T08:50:43;20.60;1.00
352;DHT22;164;50.784;6.496;2022-07-23T08:53:10;20.70;1.00
352;DHT22;164;50.784;6.496;2022-07-23T08:55:37;20.70;1.00
352;DHT22;164;50.784;6.496;2022-07-23T08:58:05;20.80;1.00
352;DHT22;164;50.784;6.496;2022-07-23T09:00:32;21.00;1.00
352;DHT22;164;50.784;6.496;2022-07-23T09:02:59;21.10;1.00
352;DHT22;164;50.784;6.496;2022-07-23T09:05:27;21.30;1.00
352;DHT22;164;50.784;6.496;2022-07-23T09:08:08;21.40;1.00
352;DHT22;164;50.784;6.496;2022-07-23T09:10:50;21.40;1.00
352;DHT22;164;50.784;6.496;2022-07-23T09:13:39;21.50;1.00
352;DHT22;164;50.784;6.496;2022-07-23T09:16:09;21.40;1.00
352;DHT22;164;50.784;6.496;2022-07-23T09:18:41;21.40;1.00
352;DHT22;164;50.784;6.496;2022-07-23T09:21:18;21.40;1.00
352;DHT22;164;50.784;6.496;2022-07-23T09:23:49;21.40;1.00
352;DHT22;164;50.784;6.496;2022-07-23T09:26:29;21.40;1.00
352;DHT22;164;50.784;6.496;2022-07-23T09:29:08;21.40;1.00
352;DHT22;164;50.784;6.496;2022-07-23T09:31:44;21.40;1.00
352;DHT22;164;50.784;6.496;2022-07-23T09:34:14;21.60;1.00
352;DHT22;164;50.784;6.496;2022-07-23T09:36:43;21.90;1.00
352;DHT22;164;50.784;6.496;2022-07-23T09:39:11;22.00;1.00
352;DHT22;164;50.784;6.496;2022-07-23T09:41:41;22.10;1.00
352;DHT22;164;50.784;6.496;2022-07-23T09:44:11;22.00;1.00
352;DHT22;164;50.784;6.496;2022-07-23T09:46:39;22.00;1.00
352;DHT22;164;50.784;6.496;2022-07-23T09:49:18;22.00;1.00
352;DHT22;164;50.784;6.496;2022-07-23T09:51:51;22.00;1.00
352;DHT22;164;50.784;6.496;2022-07-23T09:54:27;22.10;1.00
352;DHT22;164;50.784;6.496;2022-07-23T09:56:58;22.20;1.00
352;DHT22;164;50.784;6.496;2022-07-23T09:59:27;22.40;1.00
352;DHT22;164;50.784;6.496;2022-07-23T10:01:56;22.60;1.00
352;DHT22;164;50.784;6.496;2022-07-23T10:04:26;22.90;1.00
352;DHT22;164;50.784;6.496;2022-07-23T10:06:57;23.10;1.00
352;DHT22;164;50.784;6.496;2022-07-23T10:09:26;23.30;1.00
352;DHT22;164;50.784;6.496;2022-07-23T10:11:58;23.60;1.00
352;DHT22;164;50.784;6.496;2022-07-23T10:14:34;23.60;1.00
352;DHT22;164;50.784;6.496;2022-07-23T10:17:00;23.60;1.00
352;DHT22;164;50.784;6.496;2022-07-23T10:19:28;23.60;1.00
352;DHT22;164;50.784;6.496;2022-07-23T10:21:59;23.80;1.00
352;DHT22;164;50.784;6.496;2022-07-23T10:24:40;24.00;1.00
352;DHT22;164;50.784;6.496;2022-07-23T10:27:39;24.20;1.00
352;DHT22;164;50.784;6.496;2022-07-23T10:30:10;24.40;1.00
352;DHT22;164;50.784;6.496;2022-07-23T10:32:45;24.40;1.00
352;DHT22;164;50.784;6.496;2022-07-23T10:35:23;24.20;1.00
352;DHT22;164;50.784;6.496;2022-07-23T10:37:57;24.00;1.00
352;DHT22;164;50.784;6.496;2022-07-23T10:40:31;24.00;1.00
352;DHT22;164;50.784;6.496;2022-07-23T10:42:59;24.20;1.00
352;DHT22;164;50.784;6.496;2022-07-23T10:45:31;24.40;1.00
352;DHT22;164;50.784;6.496;2022-07-23T10:48:14;24.70;1.00
352;DHT22;164;50.784;6.496;2022-07-23T10:50:42;24.80;1.00
352;DHT22;164;50.784;6.496;2022-07-23T10:53:17;24.80;1.00
352;DHT22;164;50.784;6.496;2022-07-23T10:55:47;24.90;1.00
352;DHT22;164;50.784;6.496;2022-07-23T10:58:19;25.00;1.00
352;DHT22;164;50.784;6.496;2022-07-23T11:00:46;25.10;1.00
352;DHT22;164;50.784;6.496;2022-07-23T11:03:33;25.10;1.00
352;DHT22;164;50.784;6.496;2022-07-23T11:06:03;25.10;1.00
352;DHT22;164;50.784;6.496;2022-07-23T11:08:33;25.00;1.00
352;DHT22;164;50.784;6.496;2022-07-23T11:11:10;25.00;1.00
352;DHT22;164;50.784;6.496;2022-07-23T11:13:46;25.00;1.00
352;DHT22;164;50.784;6.496;2022-07-23T11:16:22;24.90;1.00
352;DHT22;164;50.784;6.496;2022-07-23T11:19:10;24.70;1.00
352;DHT22;164;50.784;6.496;2022-07-23T11:21:55;24.90;1.00
352;DHT22;164;50.784;6.496;2022-07-23T11:24:24;25.20;1.00
352;DHT22;164;50.784;6.496;2022-07-23T11:27:01;25.50;1.00
352;DHT22;164;50.784;6.496;2022-07-23T11:29:45;25.90;1.00
352;DHT22;164;50.784;6.496;2022-07-23T11:32:34;26.20;1.00
352;DHT22;164;50.784;6.496;2022-07-23T11:35:25;26.60;1.00
352;DHT22;164;50.784;6.496;2022-07-23T11:37:54;26.50;1.00
352;DHT22;164;50.784;6.496;2022-07-23T11:40:25;26.50;1.00
352;DHT22;164;50.784;6.496;2022-07-23T11:42:55;26.40;1.00
352;DHT22;164;50.784;6.496;2022-07-23T11:45:25;26.20;1.00
352;DHT22;164;50.784;6.496;2022-07-23T11:47:52;25.90;1.00
352;DHT22;164;50.784;6.496;2022-07-23T11:50:22;25.90;1.00
352;DHT22;164;50.784;6.496;2022-07-23T11:52:49;25.70;1.00
352;DHT22;164;50.784;6.496;2022-07-23T11:55:17;25.80;1.00
352;DHT22;164;50.784;6.496;2022-07-23T11:57:46;26.00;1.00
352;DHT22;164;50.784;6.496;2022-07-23T12:00:16;26.40;1.00
352;DHT22;164;50.784;6.496;2022-07-23T12:02:45;26.70;1.00
352;DHT22;164;50.784;6.496;2022-07-23T12:05:13;27.10;1.00
352;DHT22;164;50.784;6.496;2022-07-23T12:07:42;27.20;1.00
352;DHT22;164;50.784;6.496;2022-07-23T12:10:12;27.40;1.00
352;DHT22;164;50.784;6.496;2022-07-23T12:12:41;27.50;1.00
352;DHT22;164;50.784;6.496;2022-07-23T12:15:13;27.50;1.00
352;DHT22;164;50.784;6.496;2022-07-23T12:17:43;27.20;1.00
352;DHT22;164;50.784;6.496;2022-07-23T12:20:14;26.90;1.00
352;DHT22;164;50.784;6.496;2022-07-23T12:22:44;26.70;1.00
352;DHT22;164;50.784;6.496;2022-07-23T12:25:12;26.70;1.00
352;DHT22;164;50.784;6.496;2022-07-23T12:27:41;26.70;1.00
352;DHT22;164;50.784;6.496;2022-07-23T12:30:21;26.70;1.00
352;DHT22;164;50.784;6.496;2022-07-23T12:32:50;26.90;1.00
352;DHT22;164;50.784;6.496;2022-07-23T12:35:18;27.20;1.00
352;DHT22;164;50.784;6.496;2022-07-23T12:37:48;27.50;1.00
352;DHT22;164;50.784;6.496;2022-07-23T12:40:20;27.70;1.00
352;DHT22;164;50.784;6.496;2022-07-23T12:42:51;27.80;1.00
352;DHT22;164;50.784;6.496;2022-07-23T12:45:20;27.90;1.00
352;DHT22;164;50.784;6.496;2022-07-23T12:48:05;27.60;1.00
352;DHT22;164;50.784;6.496;2022-07-23T12:50:51;27.70;1.00
352;DHT22;164;50.784;6.496;2022-07-23T12:53:20;27.90;1.00
352;DHT22;164;50.784;6.496;2022-07-23T12:55:48;28.00;1.00
352;DHT22;164;50.784;6.496;2022-07-23T12:58:17;28.10;1.00
352;DHT22;164;50.784;6.496;2022-07-23T13:00:54;28.10;1.00
352;DHT22;164;50.784;6.496;2022-07-23T13:03:23;27.90;1.00
352;DHT22;164;50.784;6.496;2022-07-23T13:05:50;27.80;1.00
352;DHT22;164;50.784;6.496;2022-07-23T13:08:17;27.80;1.00
352;DHT22;164;50.784;6.496;2022-07-23T13:10:44;27.60;1.00
352;DHT22;164;50.784;6.496;2022-07-23T13:13:14;27.70;1.00
352;DHT22;164;50.784;6.496;2022-07-23T13:15:42;27.60;1.00
352;DHT22;164;50.784;6.496;2022-07-23T13:18:10;27.60;1.00
352;DHT22;164;50.784;6.496;2022-07-23T13:20:37;27.70;1.00
352;DHT22;164;50.784;6.496;2022-07-23T13:23:05;27.80;1.00
352;DHT22;164;50.784;6.496;2022-07-23T13:25:33;27.90;1.00
352;DHT22;164;50.784;6.496;2022-07-23T13:28:00;27.70;1.00
352;DHT22;164;50.784;6.496;2022-07-23T13:30:27;27.60;1.00
352;DHT22;164;50.784;6.496;2022-07-23T13:32:54;27.50;1.00
352;DHT22;164;50.784;6.496;2022-07-23T13:35:23;27.30;1.00
352;DHT22;164;50.784;6.496;2022-07-23T13:37:50;27.20;1.00
352;DHT22;164;50.784;6.496;2022-07-23T13:40:17;27.60;1.00
352;DHT22;164;50.784;6.496;2022-07-23T13:42:44;27.90;1.00
352;DHT22;164;50.784;6.496;2022-07-23T13:45:11;27.90;1.00
352;DHT22;164;50.784;6.496;2022-07-23T13:47:39;28.10;1.00
352;DHT22;164;50.784;6.496;2022-07-23T13:50:06;28.50;1.00
352;DHT22;164;50.784;6.496;2022-07-23T13:52:37;28.50;1.00
352;DHT22;164;50.784;6.496;2022-07-23T13:55:05;28.30;1.00
352;DHT22;164;50.784;6.496;2022-07-23T13:57:34;28.20;1.00
352;DHT22;164;50.784;6.496;2022-07-23T14:00:01;28.40;1.00
352;DHT22;164;50.784;6.496;2022-07-23T14:02:28;28.50;1.00
352;DHT22;164;50.784;6.496;2022-07-23T14:04:56;28.50;1.00
352;DHT22;164;50.784;6.496;2022-07-23T14:07:23;28.50;1.00
352;DHT22;164;50.784;6.496;2022-07-23T14:09:52;28.50;1.00
352;DHT22;164;50.784;6.496;2022-07-23T14:12:19;28.60;1.00
352;DHT22;164;50.784;6.496;2022-07-23T14:14:48;28.80;1.00
352;DHT22;164;50.784;6.496;2022-07-23T14:17:15;29.10;1.00
352;DHT22;164;50.784;6.496;2022-07-23T14:19:42;29.60;1.00
352;DHT22;164;50.784;6.496;2022-07-23T14:22:10;30.10;1.00
352;DHT22;164;50.784;6.496;2022-07-23T14:24:37;30.30;1.00
352;DHT22;164;50.784;6.496;2022-07-23T14:27:07;30.40;1.00
352;DHT22;164;50.784;6.496;2022-07-23T14:29:34;30.40;1.00
352;DHT22;164;50.784;6.496;2022-07-23T14:32:02;30.30;1.00
352;DHT22;164;50.784;6.496;2022-07-23T14:34:29;30.20;1.00
352;DHT22;164;50.784;6.496;2022-07-23T14:36:56;30.30;1.00
352;DHT22;164;50.784;6.496;2022-07-23T14:39:23;30.20;1.00
352;DHT22;164;50.784;6.496;2022-07-23T14:41:50;30.60;1.00
352;DHT22;164;50.784;6.496;2022-07-23T14:44:19;30.50;1.00
352;DHT22;164;50.784;6.496;2022-07-23T14:46:46;30.30;1.00
352;DHT22;164;50.784;6.496;2022-07-23T14:49:13;30.20;1.00
352;DHT22;164;50.784;6.496;2022-07-23T14:51:40;30.30;1.00
352;DHT22;164;50.784;6.496;2022-07-23T14:54:07;30.70;1.00
352;DHT22;164;50.784;6.496;2022-07-23T14:56:34;31.50;1.00
352;DHT22;164;50.784;6.496;2022-07-23T14:59:02;32.20;1.00
352;DHT22;164;50.784;6.496;2022-07-23T15:01:30;32.40;1.00
352;DHT22;164;50.784;6.496;2022-07-23T15:03:58;32.60;1.00
352;DHT22;164;50.784;6.496;2022-07-23T15:06:25;33.00;1.00
352;DHT22;164;50.784;6.496;2022-07-23T15:08:52;33.30;1.00
352;DHT22;164;50.784;6.496;2022-07-23T15:11:19;34.00;1.00
352;DHT22;164;50.784;6.496;2022-07-23T15:13:47;34.60;1.00
352;DHT22;164;50.784;6.496;2022-07-23T15:16:14;35.20;1.00
352;DHT22;164;50.784;6.496;2022-07-23T15:18:43;35.10;1.00
352;DHT22;164;50.784;6.496;2022-07-23T15:21:10;34.90;1.00
352;DHT22;164;50.784;6.496;2022-07-23T15:23:38;34.80;1.00
352;DHT22;164;50.784;6.496;2022-07-23T15:26:06;34.40;1.00
352;DHT22;164;50.784;6.496;2022-07-23T15:28:33;34.40;1.00
352;DHT22;164;50.784;6.496;2022-07-23T15:31:00;34.50;1.00
352;DHT22;164;50.784;6.496;2022-07-23T15:33:28;34.40;1.00
352;DHT22;164;50.784;6.496;2022-07-23T15:35:56;34.20;1.00
352;DHT22;164;50.784;6.496;2022-07-23T15:38:25;34.20;1.00
352;DHT22;164;50.784;6.496;2022-07-23T15:40:53;34.00;1.00
352;DHT22;164;50.784;6.496;2022-07-23T15:43:20;33.20;1.00
352;DHT22;164;50.784;6.496;2022-07-23T15:45:47;32.60;1.00
352;DHT22;164;50.784;6.496;2022-07-23T15:48:15;32.70;1.00
352;DHT22;164;50.784;6.496;2022-07-23T15:50:42;32.90;1.00
352;DHT22;164;50.784;6.496;2022-07-23T15:53:11;33.40;1.00
352;DHT22;164;50.784;6.496;2022-07-23T15:55:38;33.40;1.00
352;DHT22;164;50.784;6.496;2022-07-23T15:58:06;33.10;1.00
352;DHT22;164;50.784;6.496;2022-07-23T16:00:33;32.70;1.00
352;DHT22;164;50.784;6.496;2022-07-23T16:03:00;32.80;1.00
352;DHT22;164;50.784;6.496;2022-07-23T16:05:27;31.80;1.00
352;DHT22;164;50.784;6.496;2022-07-23T16:07:54;31.50;1.00
352;DHT22;164;50.784;6.496;2022-07-23T16:10:23;31.60;1.00
352;DHT22;164;50.784;6.496;2022-07-23T16:12:50;31.70;1.00
352;DHT22;164;50.784;6.496;2022-07-23T16:15:17;32.00;1.00
352;DHT22;164;50.784;6.496;2022-07-23T16:17:44;32.20;1.00
352;DHT22;164;50.784;6.496;2022-07-23T16:20:11;32.40;1.00
352;DHT22;164;50.784;6.496;2022-07-23T16:22:39;32.60;1.00
352;DHT22;164;50.784;6.496;2022-07-23T16:25:07;33.30;1.00
352;DHT22;164;50.784;6.496;2022-07-23T16:27:36;33.40;1.00
352;DHT22;164;50.784;6.496;2022-07-23T16:30:05;33.40;1.00
352;DHT22;164;50.784;6.496;2022-07-23T16:32:32;33.40;1.00
352;DHT22;164;50.784;6.496;2022-07-23T16:34:59;33.00;1.00
352;DHT22;164;50.784;6.496;2022-07-23T16:37:26;32.60;1.00
352;DHT22;164;50.784;6.496;2022-07-23T16:39:53;32.40;1.00
352;DHT22;164;50.784;6.496;2022-07-23T16:42:20;32.60;1.00
352;DHT22;164;50.784;6.496;2022-07-23T16:44:49;32.90;1.00
352;DHT22;164;50.784;6.496;2022-07-23T16:47:16;33.10;1.00
352;DHT22;164;50.784;6.496;2022-07-23T16:49:45;33.50;1.00
352;DHT22;164;50.784;6.496;2022-07-23T16:52:12;33.70;1.00
352;DHT22;164;50.784;6.496;2022-07-23T16:54:39;33.80;1.00
352;DHT22;164;50.784;6.496;2022-07-23T16:57:06;33.80;1.00
352;DHT22;164;50.784;6.496;2022-07-23T16:59:33;33.80;1.00
352;DHT22;164;50.784;6.496;2022-07-23T17:02:02;33.80;1.00
352;DHT22;164;50.784;6.496;2022-07-23T17:04:29;33.90;1.00
352;DHT22;164;50.784;6.496;2022-07-23T17:06:56;33.90;1.00